sensor_id;sensor_type;location;lat;lon;timestamp;temperature;humidity
5697;DHT22;2873;50.966;7.210;2023-02-18T00:02:05;11.90;99.90
5697;DHT22;2873;50.966;7.210;2023-02-18T00:04:30;11.90;99.90
5697;DHT22;2873;50.966;7.210;2023-02-18T00:06:56;11.90;99.90
5697;DHT22;2873;50.966;7.210;2023-02-18T00:09:22;11.90;99.90
5697;DHT22;2873;50.966;7.210;2023-02-18T00:11:47;11.80;99.90
5697;DHT22;2873;50.966;7.210;2023-02-18T00:14:14;11.70;99.90
5697;DHT22;2873;50.966;7.210;2023-02-18T00:16:41;11.70;99.90
5697;DHT22;2873;50.966;7.210;2023-02-18T00:19:10;11.60;99.90
5697;DHT22;2873;50.966;7.210;2023-02-18T00:21:36;11.70;99.90
5697;DHT22;2873;50.966;7.210;2023-02-18T00:24:03;11.90;99.90
5697;DHT22;2873;50.966;7.210;2023-02-18T00:26:29;11.80;99.90
5697;DHT22;2873;50.966;7.210;2023-02-18T00:28:55;11.80;99.90
5697;DHT22;2873;50.966;7.210;2023-02-18T00:31:26;11.80;99.90
5697;DHT22;2873;50.966;7.210;2023-02-18T00:33:52;11.90;99.90
5697;DHT22;2873;50.966;7.210;2023-02-18T00:36:19;11.80;99.90
5697;DHT22;2873;50.966;7.210;2023-02-18T00:38:53;11.80;99.90
5697;DHT22;2873;50.966;7.210;2023-02-18T00:41:20;11.70;99.90
5697;DHT22;2873;50.966;7.210;2023-02-18T00:43:46;11.80;99.90
5697;DHT22;2873;50.966;7.210;2023-02-18T00:46:12;11.70;99.90
5697;DHT22;2873;50.966;7.210;2023-02-18T00:48:37;11.60;99.90
5697;DHT22;2873;50.966;7.210;2023-02-18T00:51:05;11.60;99.90
5697;DHT22;2873;50.966;7.210;2023-02-18T00:53:31;11.70;99.90
5697;DHT22;2873;50.966;7.210;2023-02-18T00:55:57;11.60;99.90
5697;DHT22;2873;50.966;7.210;2023-02-18T00:58:23;11.70;99.90
5697;DHT22;2873;50.966;7.210;2023-02-18T01:00:49;11.70;99.90
5697;DHT22;2873;50.966;7.210;2023-02-18T01:03:15;11.70;99.90
5697;DHT22;2873;50.966;7.210;2023-02-18T01:05:41;11.60;99.90
5697;DHT22;2873;50.966;7.210;2023-02-18T01:08:08;11.60;99.90
5697;DHT22;2873;50.966;7.210;2023-02-18T01:10:35;11.70;99.90
5697;DHT22;2873;50.966;7.210;2023-02-18T01:13:01;11.80;99.90
5697;DHT22;2873;50.966;7.210;2023-02-18T01:15:29;11.70;99.90
5697;DHT22;2873;50.966;7.210;2023-02-18T01:17:54;11.80;99.90
5697;DHT22;2873;50.966;7.210;2023-02-18T01:20:20;11.70;99.90
5697;DHT22;2873;50.966;7.210;2023-02-18T01:22:46;11.90;99.90
5697;DHT22;2873;50.966;7.210;2023-02-18T01:25:12;11.90;99.90
5697;DHT22;2873;50.966;7.210;2023-02-18T01:27:37;11.90;99.90
5697;DHT22;2873;50.966;7.210;2023-02-18T01:30:04;11.90;99.90
5697;DHT22;2873;50.966;7.210;2023-02-18T01:32:30;11.70;99.90
5697;DHT22;2873;50.966;7.210;2023-02-18T01:34:56;11.80;99.90
5697;DHT22;2873;50.966;7.210;2023-02-18T01:37:22;11.70;99.90
5697;DHT22;2873;50.966;7.210;2023-02-18T01:39:47;11.80;99.90
5697;DHT22;2873;50.966;7.210;2023-02-18T01:42:18;11.90;99.90
5697;DHT22;2873;50.966;7.210;2023-02-18T01:44:45;11.60;99.90
5697;DHT22;2873;50.966;7.210;2023-02-18T01:47:11;11.40;99.90
5697;DHT22;2873;50.966;7.210;2023-02-18T01:49:38;11.60;99.90
5697;DHT22;2873;50.966;7.210;2023-02-18T01:52:07;11.70;99.90
5697;DHT22;2873;50.966;7.210;2023-02-18T01:54:38;11.70;99.90
5697;DHT22;2873;50.966;7.210;2023-02-18T01:57:16;11.40;99.90
5697;DHT22;2873;50.966;7.210;2023-02-18T01:59:47;11.50;99.90
5697;DHT22;2873;50.966;7.210;2023-02-18T02:02:23;11.50;99.90
5697;DHT22;2873;50.966;7.210;2023-02-18T02:04:49;11.70;99.90
5697;DHT22;2873;50.966;7.210;2023-02-18T02:07:17;11.60;99.90
5697;DHT22;2873;50.966;7.210;2023-02-18T02:09:44;11.50;99.90
5697;DHT22;2873;50.966;7.210;2023-02-18T02:15:11;11.60;99.90
5697;DHT22;2873;50.966;7.210;2023-02-18T02:24:14;11.70;99.90
5697;DHT22;2873;50.966;7.210;2023-02-18T02:27:21;11.50;99.90
5697;DHT22;2873;50.966;7.210;2023-02-18T02:37:53;11.70;99.90
5697;DHT22;2873;50.966;7.210;2023-02-18T02:46:37;11.50;99.90
5697;DHT22;2873;50.966;7.210;2023-02-18T02:52:11;11.50;99.90
5697;DHT22;2873;50.966;7.210;2023-02-18T02:54:37;11.50;99.90
5697;DHT22;2873;50.966;7.210;2023-02-18T02:59:41;11.60;99.90
5697;DHT22;2873;50.966;7.210;2023-02-18T03:05:21;11.80;99.90
5697;DHT22;2873;50.966;7.210;2023-02-18T03:11:03;11.60;99.90
5697;DHT22;2873;50.966;7.210;2023-02-18T03:13:42;11.80;99.90
5697;DHT22;2873;50.966;7.210;2023-02-18T03:16:27;11.80;99.90
5697;DHT22;2873;50.966;7.210;2023-02-18T03:19:09;11.50;99.90
5697;DHT22;2873;50.966;7.210;2023-02-18T03:21:56;11.70;99.90
5697;DHT22;2873;50.966;7.210;2023-02-18T03:24:37;11.60;99.90
5697;DHT22;2873;50.966;7.210;2023-02-18T03:27:14;11.40;99.90
5697;DHT22;2873;50.966;7.210;2023-02-18T03:29:42;11.60;99.90
5697;DHT22;2873;50.966;7.210;2023-02-18T03:32:11;11.60;99.90
5697;DHT22;2873;50.966;7.210;2023-02-18T03:34:41;11.50;99.90
5697;DHT22;2873;50.966;7.210;2023-02-18T03:37:09;11.50;99.90
5697;DHT22;2873;50.966;7.210;2023-02-18T03:39:36;11.50;99.90
5697;DHT22;2873;50.966;7.210;2023-02-18T03:42:02;11.50;99.90
5697;DHT22;2873;50.966;7.210;2023-02-18T03:44:29;11.60;99.90
5697;DHT22;2873;50.966;7.210;2023-02-18T03:46:55;11.60;99.90
5697;DHT22;2873;50.966;7.210;2023-02-18T03:49:21;11.70;99.90
5697;DHT22;2873;50.966;7.210;2023-02-18T03:51:47;11.70;99.90
5697;DHT22;2873;50.966;7.210;2023-02-18T03:54:12;11.60;99.90
5697;DHT22;2873;50.966;7.210;2023-02-18T03:56:39;11.50;99.90
5697;DHT22;2873;50.966;7.210;2023-02-18T03:59:05;11.50;99.90
5697;DHT22;2873;50.966;7.210;2023-02-18T04:01:30;11.50;99.90
5697;DHT22;2873;50.966;7.210;2023-02-18T04:03:56;11.50;99.90
5697;DHT22;2873;50.966;7.210;2023-02-18T04:06:22;11.60;99.90
5697;DHT22;2873;50.966;7.210;2023-02-18T04:08:48;11.40;99.90
5697;DHT22;2873;50.966;7.210;2023-02-18T04:11:14;11.10;99.90
5697;DHT22;2873;50.966;7.210;2023-02-18T04:13:39;11.30;99.90
5697;DHT22;2873;50.966;7.210;2023-02-18T04:16:05;11.30;99.90
5697;DHT22;2873;50.966;7.210;2023-02-18T04:18:31;11.30;99.90
5697;DHT22;2873;50.966;7.210;2023-02-18T04:20:56;11.30;99.90
5697;DHT22;2873;50.966;7.210;2023-02-18T04:23:22;11.20;99.90
5697;DHT22;2873;50.966;7.210;2023-02-18T04:25:48;11.10;99.90
5697;DHT22;2873;50.966;7.210;2023-02-18T04:28:15;11.10;99.90
5697;DHT22;2873;50.966;7.210;2023-02-18T04:30:45;11.10;99.90
5697;DHT22;2873;50.966;7.210;2023-02-18T04:33:10;11.10;99.90
5697;DHT22;2873;50.966;7.210;2023-02-18T04:35:36;11.00;99.90
5697;DHT22;2873;50.966;7.210;2023-02-18T04:38:04;11.00;99.90
5697;DHT22;2873;50.966;7.210;2023-02-18T04:40:30;11.00;99.90
5697;DHT22;2873;50.966;7.210;2023-02-18T04:42:57;11.10;99.90
5697;DHT22;2873;50.966;7.210;2023-02-18T04:45:23;11.20;99.90
5697;DHT22;2873;50.966;7.210;2023-02-18T04:47:49;11.10;99.90
5697;DHT22;2873;50.966;7.210;2023-02-18T04:50:14;11.10;99.90
5697;DHT22;2873;50.966;7.210;2023-02-18T04:52:40;11.10;99.90
5697;DHT22;2873;50.966;7.210;2023-02-18T04:55:06;11.00;99.90
5697;DHT22;2873;50.966;7.210;2023-02-18T04:57:32;11.20;99.90
5697;DHT22;2873;50.966;7.210;2023-02-18T04:59:57;11.10;99.90
5697;DHT22;2873;50.966;7.210;2023-02-18T05:02:23;11.20;99.90
5697;DHT22;2873;50.966;7.210;2023-02-18T05:04:48;11.30;99.90
5697;DHT22;2873;50.966;7.210;2023-02-18T05:07:14;11.20;99.90
5697;DHT22;2873;50.966;7.210;2023-02-18T05:09:39;11.30;99.90
5697;DHT22;2873;50.966;7.210;2023-02-18T05:12:05;11.10;99.90
5697;DHT22;2873;50.966;7.210;2023-02-18T05:14:31;11.20;99.90
5697;DHT22;2873;50.966;7.210;2023-02-18T05:16:56;11.20;99.90
5697;DHT22;2873;50.966;7.210;2023-02-18T05:19:22;11.20;99.90
5697;DHT22;2873;50.966;7.210;2023-02-18T05:21:48;11.40;99.90
5697;DHT22;2873;50.966;7.210;2023-02-18T05:24:13;11.40;99.90
5697;DHT22;2873;50.966;7.210;2023-02-18T05:26:39;11.40;99.90
5697;DHT22;2873;50.966;7.210;2023-02-18T05:29:04;11.10;99.90
5697;DHT22;2873;50.966;7.210;2023-02-18T05:31:30;11.10;99.90
5697;DHT22;2873;50.966;7.210;2023-02-18T05:33:56;11.10;99.90
5697;DHT22;2873;50.966;7.210;2023-02-18T05:36:22;11.00;99.90
5697;DHT22;2873;50.966;7.210;2023-02-18T05:38:47;10.90;99.90
5697;DHT22;2873;50.966;7.210;2023-02-18T05:41:13;11.00;99.90
5697;DHT22;2873;50.966;7.210;2023-02-18T05:43:38;11.00;99.90
5697;DHT22;2873;50.966;7.210;2023-02-18T05:46:23;11.00;99.90
5697;DHT22;2873;50.966;7.210;2023-02-18T05:48:48;11.10;99.90
5697;DHT22;2873;50.966;7.210;2023-02-18T05:51:14;11.10;99.90
5697;DHT22;2873;50.966;7.210;2023-02-18T05:53:40;10.60;99.90
5697;DHT22;2873;50.966;7.210;2023-02-18T05:56:06;10.60;99.90
5697;DHT22;2873;50.966;7.210;2023-02-18T05:58:31;10.80;99.90
5697;DHT22;2873;50.966;7.210;2023-02-18T06:00:57;10.80;99.90
5697;DHT22;2873;50.966;7.210;2023-02-18T06:03:22;11.00;99.90
5697;DHT22;2873;50.966;7.210;2023-02-18T06:05:51;10.70;99.90
5697;DHT22;2873;50.966;7.210;2023-02-18T06:08:17;10.90;99.90
5697;DHT22;2873;50.966;7.210;2023-02-18T06:10:45;10.90;99.90
5697;DHT22;2873;50.966;7.210;2023-02-18T06:13:10;10.60;99.90
5697;DHT22;2873;50.966;7.210;2023-02-18T06:15:37;10.50;99.90
5697;DHT22;2873;50.966;7.210;2023-02-18T06:18:03;10.50;99.90
5697;DHT22;2873;50.966;7.210;2023-02-18T06:20:28;10.60;99.90
5697;DHT22;2873;50.966;7.210;2023-02-18T06:22:54;10.70;99.90
5697;DHT22;2873;50.966;7.210;2023-02-18T06:25:19;10.60;99.90
5697;DHT22;2873;50.966;7.210;2023-02-18T06:27:45;10.50;99.90
5697;DHT22;2873;50.966;7.210;2023-02-18T06:30:11;10.70;99.90
5697;DHT22;2873;50.966;7.210;2023-02-18T06:32:36;10.80;99.90
5697;DHT22;2873;50.966;7.210;2023-02-18T06:35:02;10.90;99.90
5697;DHT22;2873;50.966;7.210;2023-02-18T06:37:27;10.60;99.90
5697;DHT22;2873;50.966;7.210;2023-02-18T06:39:53;10.70;99.90
5697;DHT22;2873;50.966;7.210;2023-02-18T06:42:19;10.70;99.90
5697;DHT22;2873;50.966;7.210;2023-02-18T06:44:44;10.90;99.90
5697;DHT22;2873;50.966;7.210;2023-02-18T06:47:10;10.90;99.90
5697;DHT22;2873;50.966;7.210;2023-02-18T06:49:35;10.70;99.90
5697;DHT22;2873;50.966;7.210;2023-02-18T06:52:01;10.80;99.90
5697;DHT22;2873;50.966;7.210;2023-02-18T06:54:27;10.70;99.90
5697;DHT22;2873;50.966;7.210;2023-02-18T06:56:52;10.70;99.90
5697;DHT22;2873;50.966;7.210;2023-02-18T06:59:18;10.70;99.90
5697;DHT22;2873;50.966;7.210;2023-02-18T07:01:43;10.40;99.90
5697;DHT22;2873;50.966;7.210;2023-02-18T07:04:09;10.60;99.90
5697;DHT22;2873;50.966;7.210;2023-02-18T07:06:34;10.70;99.90
5697;DHT22;2873;50.966;7.210;2023-02-18T07:09:00;10.70;99.90
5697;DHT22;2873;50.966;7.210;2023-02-18T07:11:25;10.80;99.90
5697;DHT22;2873;50.966;7.210;2023-02-18T07:13:51;10.70;99.90
5697;DHT22;2873;50.966;7.210;2023-02-18T07:16:17;10.80;99.90
5697;DHT22;2873;50.966;7.210;2023-02-18T07:18:42;10.80;99.90
5697;DHT22;2873;50.966;7.210;2023-02-18T07:21:08;10.90;99.90
5697;DHT22;2873;50.966;7.210;2023-02-18T07:23:33;11.00;99.90
5697;DHT22;2873;50.966;7.210;2023-02-18T07:26:08;10.90;99.90
5697;DHT22;2873;50.966;7.210;2023-02-18T07:28:34;10.80;99.90
5697;DHT22;2873;50.966;7.210;2023-02-18T07:31:00;10.90;99.90
5697;DHT22;2873;50.966;7.210;2023-02-18T07:33:26;11.10;99.90
5697;DHT22;2873;50.966;7.210;2023-02-18T07:35:56;11.10;99.90
5697;DHT22;2873;50.966;7.210;2023-02-18T07:38:22;11.10;99.90
5697;DHT22;2873;50.966;7.210;2023-02-18T07:40:49;11.20;99.90
5697;DHT22;2873;50.966;7.210;2023-02-18T07:43:15;11.20;99.90
5697;DHT22;2873;50.966;7.210;2023-02-18T07:45:40;11.10;99.90
5697;DHT22;2873;50.966;7.210;2023-02-18T07:48:06;11.20;99.90
5697;DHT22;2873;50.966;7.210;2023-02-18T07:50:32;11.10;99.90
5697;DHT22;2873;50.966;7.210;2023-02-18T07:53:04;11.10;99.90
5697;DHT22;2873;50.966;7.210;2023-02-18T07:55:30;11.20;99.90
5697;DHT22;2873;50.966;7.210;2023-02-18T07:58:20;10.90;99.90
5697;DHT22;2873;50.966;7.210;2023-02-18T08:00:46;11.20;99.90
5697;DHT22;2873;50.966;7.210;2023-02-18T08:03:16;11.40;99.90
5697;DHT22;2873;50.966;7.210;2023-02-18T08:05:42;11.40;99.90
5697;DHT22;2873;50.966;7.210;2023-02-18T08:08:16;11.30;99.90
5697;DHT22;2873;50.966;7.210;2023-02-18T08:10:42;11.30;99.90
5697;DHT22;2873;50.966;7.210;2023-02-18T08:13:08;11.20;99.90
5697;DHT22;2873;50.966;7.210;2023-02-18T08:15:34;11.30;99.90
5697;DHT22;2873;50.966;7.210;2023-02-18T08:18:00;11.20;99.90
5697;DHT22;2873;50.966;7.210;2023-02-18T08:20:26;11.10;99.90
5697;DHT22;2873;50.966;7.210;2023-02-18T08:22:52;11.20;99.90
5697;DHT22;2873;50.966;7.210;2023-02-18T08:25:17;11.10;99.90
5697;DHT22;2873;50.966;7.210;2023-02-18T08:27:43;11.00;99.90
5697;DHT22;2873;50.966;7.210;2023-02-18T08:30:09;11.10;99.90
5697;DHT22;2873;50.966;7.210;2023-02-18T08:32:35;11.20;99.90
5697;DHT22;2873;50.966;7.210;2023-02-18T08:35:01;11.20;99.90
5697;DHT22;2873;50.966;7.210;2023-02-18T08:37:27;11.10;99.90
5697;DHT22;2873;50.966;7.210;2023-02-18T08:39:52;11.00;99.90
5697;DHT22;2873;50.966;7.210;2023-02-18T08:42:18;11.00;99.90
5697;DHT22;2873;50.966;7.210;2023-02-18T08:44:44;10.80;99.90
5697;DHT22;2873;50.966;7.210;2023-02-18T08:47:09;10.80;99.90
5697;DHT22;2873;50.966;7.210;2023-02-18T08:49:35;10.70;99.90
5697;DHT22;2873;50.966;7.210;2023-02-18T08:52:02;10.50;99.90
5697;DHT22;2873;50.966;7.210;2023-02-18T08:54:27;10.50;99.90
5697;DHT22;2873;50.966;7.210;2023-02-18T08:56:54;10.60;99.90
5697;DHT22;2873;50.966;7.210;2023-02-18T08:59:20;10.50;99.90
5697;DHT22;2873;50.966;7.210;2023-02-18T09:01:45;10.40;99.90
5697;DHT22;2873;50.966;7.210;2023-02-18T09:04:11;10.20;99.90
5697;DHT22;2873;50.966;7.210;2023-02-18T09:06:37;10.60;99.90
5697;DHT22;2873;50.966;7.210;2023-02-18T09:09:03;10.70;99.90
5697;DHT22;2873;50.966;7.210;2023-02-18T09:11:29;10.70;99.90
5697;DHT22;2873;50.966;7.210;2023-02-18T09:13:54;10.80;99.90
5697;DHT22;2873;50.966;7.210;2023-02-18T09:16:20;10.80;99.90
5697;DHT22;2873;50.966;7.210;2023-02-18T09:18:47;10.90;99.90
5697;DHT22;2873;50.966;7.210;2023-02-18T09:21:14;11.00;99.90
5697;DHT22;2873;50.966;7.210;2023-02-18T09:23:40;10.70;99.90
5697;DHT22;2873;50.966;7.210;2023-02-18T09:26:08;10.80;99.90
5697;DHT22;2873;50.966;7.210;2023-02-18T09:28:35;10.90;99.90
5697;DHT22;2873;50.966;7.210;2023-02-18T09:31:06;10.70;99.90
5697;DHT22;2873;50.966;7.210;2023-02-18T09:33:38;10.80;99.90
5697;DHT22;2873;50.966;7.210;2023-02-18T09:36:04;11.10;99.90
5697;DHT22;2873;50.966;7.210;2023-02-18T09:38:30;10.90;99.90
5697;DHT22;2873;50.966;7.210;2023-02-18T09:40:56;10.90;99.90
5697;DHT22;2873;50.966;7.210;2023-02-18T09:43:47;10.90;99.90
5697;DHT22;2873;50.966;7.210;2023-02-18T09:48:47;10.80;99.90
5697;DHT22;2873;50.966;7.210;2023-02-18T09:51:14;11.00;99.90
5697;DHT22;2873;50.966;7.210;2023-02-18T09:53:41;10.80;99.90
5697;DHT22;2873;50.966;7.210;2023-02-18T09:56:18;10.70;99.90
5697;DHT22;2873;50.966;7.210;2023-02-18T09:58:46;10.70;99.90
5697;DHT22;2873;50.966;7.210;2023-02-18T10:01:32;10.90;99.90
5697;DHT22;2873;50.966;7.210;2023-02-18T10:06:57;10.60;99.90
5697;DHT22;2873;50.966;7.210;2023-02-18T10:11:55;10.60;99.90
5697;DHT22;2873;50.966;7.210;2023-02-18T10:14:21;10.70;99.90
5697;DHT22;2873;50.966;7.210;2023-02-18T10:16:48;10.90;99.90
5697;DHT22;2873;50.966;7.210;2023-02-18T10:19:33;10.90;99.90
5697;DHT22;2873;50.966;7.210;2023-02-18T10:22:01;11.00;99.90
5697;DHT22;2873;50.966;7.210;2023-02-18T10:24:34;10.70;99.90
5697;DHT22;2873;50.966;7.210;2023-02-18T10:27:00;10.90;99.90
5697;DHT22;2873;50.966;7.210;2023-02-18T10:29:28;11.10;99.90
5697;DHT22;2873;50.966;7.210;2023-02-18T10:32:26;10.90;99.90
5697;DHT22;2873;50.966;7.210;2023-02-18T10:43:47;11.10;99.90
5697;DHT22;2873;50.966;7.210;2023-02-18T10:46:28;10.60;99.90
5697;DHT22;2873;50.966;7.210;2023-02-18T10:51:46;10.60;99.90
5697;DHT22;2873;50.966;7.210;2023-02-18T10:54:13;10.60;99.90
5697;DHT22;2873;50.966;7.210;2023-02-18T10:56:45;10.70;99.90
5697;DHT22;2873;50.966;7.210;2023-02-18T10:59:23;10.60;99.90
5697;DHT22;2873;50.966;7.210;2023-02-18T11:02:16;10.60;99.90
5697;DHT22;2873;50.966;7.210;2023-02-18T11:04:44;10.70;99.90
5697;DHT22;2873;50.966;7.210;2023-02-18T11:07:15;10.70;99.90
5697;DHT22;2873;50.966;7.210;2023-02-18T11:09:51;10.60;99.90
5697;DHT22;2873;50.966;7.210;2023-02-18T11:12:44;10.50;99.90
5697;DHT22;2873;50.966;7.210;2023-02-18T11:17:41;10.50;99.90
5697;DHT22;2873;50.966;7.210;2023-02-18T11:22:48;10.40;99.90
5697;DHT22;2873;50.966;7.210;2023-02-18T11:25:23;10.60;99.90
5697;DHT22;2873;50.966;7.210;2023-02-18T11:27:56;10.70;99.90
5697;DHT22;2873;50.966;7.210;2023-02-18T11:30:35;10.80;99.90
5697;DHT22;2873;50.966;7.210;2023-02-18T11:33:23;10.60;99.90
5697;DHT22;2873;50.966;7.210;2023-02-18T11:35:53;10.40;99.90
5697;DHT22;2873;50.966;7.210;2023-02-18T11:38:26;10.60;99.90
5697;DHT22;2873;50.966;7.210;2023-02-18T11:40:55;10.50;99.90
5697;DHT22;2873;50.966;7.210;2023-02-18T11:43:26;10.70;99.90
5697;DHT22;2873;50.966;7.210;2023-02-18T11:46:14;10.60;99.90
5697;DHT22;2873;50.966;7.210;2023-02-18T11:48:40;10.50;99.90
5697;DHT22;2873;50.966;7.210;2023-02-18T11:51:18;10.20;99.90
5697;DHT22;2873;50.966;7.210;2023-02-18T11:54:01;10.30;99.90
5697;DHT22;2873;50.966;7.210;2023-02-18T11:56:33;10.00;99.90
5697;DHT22;2873;50.966;7.210;2023-02-18T11:59:01;10.20;99.90
5697;DHT22;2873;50.966;7.210;2023-02-18T12:04:55;10.10;99.90
5697;DHT22;2873;50.966;7.210;2023-02-18T12:07:25;10.30;99.90
5697;DHT22;2873;50.966;7.210;2023-02-18T12:09:55;9.90;99.90
5697;DHT22;2873;50.966;7.210;2023-02-18T12:12:43;10.10;99.90
5697;DHT22;2873;50.966;7.210;2023-02-18T12:15:17;10.10;99.90
5697;DHT22;2873;50.966;7.210;2023-02-18T12:18:04;10.30;99.90
5697;DHT22;2873;50.966;7.210;2023-02-18T12:23:27;10.20;99.90
5697;DHT22;2873;50.966;7.210;2023-02-18T12:26:14;10.30;99.90
5697;DHT22;2873;50.966;7.210;2023-02-18T12:31:44;10.30;99.90
5697;DHT22;2873;50.966;7.210;2023-02-18T12:45:30;10.30;99.90
5697;DHT22;2873;50.966;7.210;2023-02-18T12:48:33;10.50;99.90
5697;DHT22;2873;50.966;7.210;2023-02-18T12:59:41;10.60;99.90
5697;DHT22;2873;50.966;7.210;2023-02-18T13:13:30;10.40;99.90
5697;DHT22;2873;50.966;7.210;2023-02-18T13:18:33;10.30;99.90
5697;DHT22;2873;50.966;7.210;2023-02-18T13:21:07;10.40;99.90
5697;DHT22;2873;50.966;7.210;2023-02-18T13:23:39;10.40;99.90
5697;DHT22;2873;50.966;7.210;2023-02-18T13:26:12;10.40;99.90
5697;DHT22;2873;50.966;7.210;2023-02-18T13:31:56;10.50;99.90
5697;DHT22;2873;50.966;7.210;2023-02-18T13:35:01;10.30;99.90
5697;DHT22;2873;50.966;7.210;2023-02-18T13:40:26;10.40;99.90
5697;DHT22;2873;50.966;7.210;2023-02-18T13:42:59;10.30;99.90
5697;DHT22;2873;50.966;7.210;2023-02-18T13:45:40;10.10;99.90
5697;DHT22;2873;50.966;7.210;2023-02-18T13:48:29;10.30;99.90
5697;DHT22;2873;50.966;7.210;2023-02-18T13:51:02;10.40;99.90
5697;DHT22;2873;50.966;7.210;2023-02-18T13:53:36;10.30;99.90
5697;DHT22;2873;50.966;7.210;2023-02-18T13:56:20;10.40;99.90
5697;DHT22;2873;50.966;7.210;2023-02-18T13:59:19;10.50;99.90
5697;DHT22;2873;50.966;7.210;2023-02-18T14:01:49;10.40;99.90
5697;DHT22;2873;50.966;7.210;2023-02-18T14:12:42;10.50;99.90
5697;DHT22;2873;50.966;7.210;2023-02-18T14:17:48;10.50;99.90
5697;DHT22;2873;50.966;7.210;2023-02-18T14:22:49;10.60;99.90
5697;DHT22;2873;50.966;7.210;2023-02-18T14:27:51;10.50;99.90
5697;DHT22;2873;50.966;7.210;2023-02-18T14:32:47;10.60;99.90
5697;DHT22;2873;50.966;7.210;2023-02-18T14:35:26;10.50;99.90
5697;DHT22;2873;50.966;7.210;2023-02-18T14:46:04;10.40;99.90
5697;DHT22;2873;50.966;7.210;2023-02-18T14:51:20;10.60;99.90
5697;DHT22;2873;50.966;7.210;2023-02-18T14:53:47;10.50;99.90
5697;DHT22;2873;50.966;7.210;2023-02-18T14:56:16;10.60;99.90
5697;DHT22;2873;50.966;7.210;2023-02-18T14:58:46;10.70;99.90
5697;DHT22;2873;50.966;7.210;2023-02-18T15:01:23;10.70;99.90
5697;DHT22;2873;50.966;7.210;2023-02-18T15:03:52;10.50;99.90
5697;DHT22;2873;50.966;7.210;2023-02-18T15:08:55;10.70;99.90
5697;DHT22;2873;50.966;7.210;2023-02-18T15:11:24;10.70;99.90
5697;DHT22;2873;50.966;7.210;2023-02-18T15:13:51;10.70;99.90
5697;DHT22;2873;50.966;7.210;2023-02-18T15:16:31;10.70;99.90
5697;DHT22;2873;50.966;7.210;2023-02-18T15:19:00;10.80;99.90
5697;DHT22;2873;50.966;7.210;2023-02-18T15:21:36;10.80;99.90
5697;DHT22;2873;50.966;7.210;2023-02-18T15:26:49;10.70;99.90
5697;DHT22;2873;50.966;7.210;2023-02-18T15:29:24;10.70;99.90
5697;DHT22;2873;50.966;7.210;2023-02-18T15:31:50;10.70;99.90
5697;DHT22;2873;50.966;7.210;2023-02-18T15:34:37;10.70;99.90
5697;DHT22;2873;50.966;7.210;2023-02-18T15:37:06;10.50;99.90
5697;DHT22;2873;50.966;7.210;2023-02-18T15:39:31;10.60;99.90
5697;DHT22;2873;50.966;7.210;2023-02-18T15:42:21;10.70;99.90
5697;DHT22;2873;50.966;7.210;2023-02-18T15:44:51;10.70;99.90
5697;DHT22;2873;50.966;7.210;2023-02-18T15:47:19;10.70;99.90
5697;DHT22;2873;50.966;7.210;2023-02-18T15:49:50;10.70;99.90
5697;DHT22;2873;50.966;7.210;2023-02-18T15:52:23;10.80;99.90
5697;DHT22;2873;50.966;7.210;2023-02-18T15:54:49;10.80;99.90
5697;DHT22;2873;50.966;7.210;2023-02-18T15:57:15;10.90;99.90
5697;DHT22;2873;50.966;7.210;2023-02-18T15:59:54;10.90;99.90
5697;DHT22;2873;50.966;7.210;2023-02-18T16:02:22;10.80;99.90
5697;DHT22;2873;50.966;7.210;2023-02-18T16:04:53;10.80;99.90
5697;DHT22;2873;50.966;7.210;2023-02-18T16:07:23;10.90;99.90
5697;DHT22;2873;50.966;7.210;2023-02-18T16:09:50;10.90;99.90
5697;DHT22;2873;50.966;7.210;2023-02-18T16:12:28;10.80;99.90
5697;DHT22;2873;50.966;7.210;2023-02-18T16:14:55;10.90;99.90
5697;DHT22;2873;50.966;7.210;2023-02-18T16:17:24;11.00;99.90
5697;DHT22;2873;50.966;7.210;2023-02-18T16:20:15;11.00;99.90
5697;DHT22;2873;50.966;7.210;2023-02-18T16:22:53;11.00;99.90
5697;DHT22;2873;50.966;7.210;2023-02-18T16:28:15;11.00;99.90
5697;DHT22;2873;50.966;7.210;2023-02-18T16:30:41;11.10;99.90
5697;DHT22;2873;50.966;7.210;2023-02-18T16:33:09;11.20;99.90
5697;DHT22;2873;50.966;7.210;2023-02-18T16:35:35;11.00;99.90
5697;DHT22;2873;50.966;7.210;2023-02-18T16:38:01;11.10;99.90
5697;DHT22;2873;50.966;7.210;2023-02-18T16:40:35;11.00;99.90
5697;DHT22;2873;50.966;7.210;2023-02-18T16:43:10;11.10;99.90
5697;DHT22;2873;50.966;7.210;2023-02-18T16:45:41;11.20;99.90
5697;DHT22;2873;50.966;7.210;2023-02-18T16:48:20;11.10;99.90
5697;DHT22;2873;50.966;7.210;2023-02-18T16:50:49;11.00;99.90
5697;DHT22;2873;50.966;7.210;2023-02-18T16:53:15;10.80;99.90
5697;DHT22;2873;50.966;7.210;2023-02-18T16:55:41;10.80;99.90
5697;DHT22;2873;50.966;7.210;2023-02-18T16:58:06;10.90;99.90
5697;DHT22;2873;50.966;7.210;2023-02-18T17:00:32;11.00;99.90
5697;DHT22;2873;50.966;7.210;2023-02-18T17:02:59;11.00;99.90
5697;DHT22;2873;50.966;7.210;2023-02-18T17:05:27;11.00;99.90
5697;DHT22;2873;50.966;7.210;2023-02-18T17:07:56;11.10;99.90
5697;DHT22;2873;50.966;7.210;2023-02-18T17:10:24;10.90;99.90
5697;DHT22;2873;50.966;7.210;2023-02-18T17:12:49;11.10;99.90
5697;DHT22;2873;50.966;7.210;2023-02-18T17:17:48;11.10;99.90
5697;DHT22;2873;50.966;7.210;2023-02-18T17:20:15;10.90;99.90
5697;DHT22;2873;50.966;7.210;2023-02-18T17:22:41;11.00;99.90
5697;DHT22;2873;50.966;7.210;2023-02-18T17:25:13;11.10;99.90
5697;DHT22;2873;50.966;7.210;2023-02-18T17:27:39;11.10;99.90
5697;DHT22;2873;50.966;7.210;2023-02-18T17:30:05;11.20;99.90
5697;DHT22;2873;50.966;7.210;2023-02-18T17:32:30;11.10;99.90
5697;DHT22;2873;50.966;7.210;2023-02-18T17:34:56;11.10;99.90
5697;DHT22;2873;50.966;7.210;2023-02-18T17:37:22;11.10;99.90
5697;DHT22;2873;50.966;7.210;2023-02-18T17:39:47;11.00;99.90
5697;DHT22;2873;50.966;7.210;2023-02-18T17:42:13;11.20;99.90
5697;DHT22;2873;50.966;7.210;2023-02-18T17:44:39;11.20;99.90
5697;DHT22;2873;50.966;7.210;2023-02-18T17:47:04;11.20;99.90
5697;DHT22;2873;50.966;7.210;2023-02-18T17:49:30;11.10;99.90
5697;DHT22;2873;50.966;7.210;2023-02-18T17:51:56;11.20;99.90
5697;DHT22;2873;50.966;7.210;2023-02-18T17:54:21;11.30;99.90
5697;DHT22;2873;50.966;7.210;2023-02-18T17:56:48;11.20;99.90
5697;DHT22;2873;50.966;7.210;2023-02-18T17:59:14;11.20;99.90
5697;DHT22;2873;50.966;7.210;2023-02-18T18:01:40;11.10;99.90
5697;DHT22;2873;50.966;7.210;2023-02-18T18:04:14;11.20;99.90
5697;DHT22;2873;50.966;7.210;2023-02-18T18:06:39;11.30;99.90
5697;DHT22;2873;50.966;7.210;2023-02-18T18:09:05;11.30;99.90
5697;DHT22;2873;50.966;7.210;2023-02-18T18:11:31;11.10;99.90
5697;DHT22;2873;50.966;7.210;2023-02-18T18:13:57;11.10;99.90
5697;DHT22;2873;50.966;7.210;2023-02-18T18:16:24;11.10;99.90
5697;DHT22;2873;50.966;7.210;2023-02-18T18:18:50;11.20;99.90
5697;DHT22;2873;50.966;7.210;2023-02-18T18:23:50;10.80;99.90
5697;DHT22;2873;50.966;7.210;2023-02-18T18:26:16;10.80;99.90
5697;DHT22;2873;50.966;7.210;2023-02-18T18:28:42;10.70;99.90
5697;DHT22;2873;50.966;7.210;2023-02-18T18:31:12;10.80;99.90
5697;DHT22;2873;50.966;7.210;2023-02-18T18:33:39;10.90;99.90
5697;DHT22;2873;50.966;7.210;2023-02-18T18:36:04;10.80;99.90
5697;DHT22;2873;50.966;7.210;2023-02-18T18:38:30;10.90;99.90
5697;DHT22;2873;50.966;7.210;2023-02-18T18:40:56;11.00;99.90
5697;DHT22;2873;50.966;7.210;2023-02-18T18:43:24;10.90;99.90
5697;DHT22;2873;50.966;7.210;2023-02-18T18:45:51;10.90;99.90
5697;DHT22;2873;50.966;7.210;2023-02-18T18:48:18;10.80;99.90